createdAt,value
2022-09-04T00:01:21.380Z,20.03
2022-09-04T00:03:38.932Z,20.03
2022-09-04T00:05:49.035Z,20.02
2022-09-04T00:08:04.122Z,19.98
2022-09-04T00:10:18.386Z,19.95
2022-09-04T00:12:30.194Z,19.95
2022-09-04T00:14:43.638Z,19.92
2022-09-04T00:16:55.259Z,19.92
2022-09-04T00:19:05.957Z,19.95
2022-09-04T00:21:16.368Z,19.95
2022-09-04T00:23:27.361Z,19.93
2022-09-04T00:25:41.213Z,19.90
2022-09-04T00:27:50.331Z,19.88
2022-09-04T00:30:00.984Z,19.89
2022-09-04T00:32:13.866Z,19.90
2022-09-04T00:34:35.863Z,19.92
2022-09-04T00:36:49.501Z,19.90
2022-09-04T00:38:58.471Z,19.87
2022-09-04T00:41:13.258Z,19.84
2022-09-04T00:43:52.136Z,19.83
2022-09-04T00:46:20.379Z,19.80
2022-09-04T00:48:39.763Z,19.78
2022-09-04T00:51:16.350Z,19.79
2022-09-04T00:53:41.522Z,19.78
2022-09-04T00:55:56.827Z,19.79
2022-09-04T00:58:15.698Z,19.78
2022-09-04T01:00:22.588Z,19.78
2022-09-04T01:02:40.408Z,19.78
2022-09-04T01:04:56.694Z,19.77
2022-09-04T01:07:22.751Z,19.76
2022-09-04T01:09:50.591Z,19.76
2022-09-04T01:12:12.386Z,19.74
2022-09-04T01:14:26.230Z,19.75
2022-09-04T01:16:36.033Z,19.79
2022-09-04T01:18:47.800Z,19.83
2022-09-04T01:21:22.368Z,19.82
2022-09-04T01:24:09.226Z,19.78
2022-09-04T01:26:22.505Z,19.72
2022-09-04T01:28:35.323Z,19.69
2022-09-04T01:30:50.194Z,19.67
2022-09-04T01:33:07.832Z,19.65
2022-09-04T01:35:21.798Z,19.64
2022-09-04T01:37:36.155Z,19.63
2022-09-04T01:39:44.620Z,19.62
2022-09-04T01:41:56.691Z,19.56
2022-09-04T01:44:03.464Z,19.54
2022-09-04T01:46:33.162Z,19.52
2022-09-04T01:48:46.308Z,19.51
2022-09-04T01:50:58.364Z,19.52
2022-09-04T01:53:12.049Z,19.49
2022-09-04T01:55:26.428Z,19.47
2022-09-04T01:57:46.413Z,19.43
2022-09-04T02:00:01.301Z,19.40
2022-09-04T02:02:18.851Z,19.35
2022-09-04T02:04:33.725Z,19.29
2022-09-04T02:06:48.555Z,19.22
2022-09-04T02:09:05.600Z,19.15
2022-09-04T02:11:15.050Z,19.10
2022-09-04T02:13:28.272Z,19.07
2022-09-04T02:15:42.082Z,19.01
2022-09-04T02:17:55.182Z,18.95
2022-09-04T02:20:10.510Z,18.91
2022-09-04T02:22:24.263Z,18.90
2022-09-04T02:24:38.539Z,18.88
2022-09-04T02:26:51.663Z,18.87
2022-09-04T02:29:03.480Z,18.84
2022-09-04T02:31:16.914Z,18.82
2022-09-04T02:33:27.032Z,18.79
2022-09-04T02:35:39.491Z,18.77
2022-09-04T02:37:55.752Z,18.73
2022-09-04T02:40:09.558Z,18.69
2022-09-04T02:42:24.278Z,18.68
2022-09-04T02:44:40.949Z,18.71
2022-09-04T02:46:59.995Z,18.74
2022-09-04T02:49:13.031Z,18.77
2022-09-04T02:51:32.690Z,18.77
2022-09-04T02:53:50.116Z,18.75
2022-09-04T02:56:06.840Z,18.75
2022-09-04T02:58:21.668Z,18.74
2022-09-04T03:00:41.218Z,18.74
2022-09-04T03:02:51.701Z,18.73
2022-09-04T03:05:04.596Z,18.73
2022-09-04T03:07:13.750Z,18.73
2022-09-04T03:09:24.230Z,18.74
2022-09-04T03:11:36.667Z,18.75
2022-09-04T03:13:46.963Z,18.75
2022-09-04T03:15:56.151Z,18.75
2022-09-04T03:18:06.230Z,18.74
2022-09-04T03:20:16.444Z,18.75
2022-09-04T03:22:27.354Z,18.76
2022-09-04T03:24:38.257Z,18.78
2022-09-04T03:26:44.127Z,18.78
2022-09-04T03:29:00.988Z,18.78
2022-09-04T03:31:23.581Z,18.78
2022-09-04T03:33:35.136Z,18.79
2022-09-04T03:35:49.592Z,18.80
2022-09-04T03:38:09.298Z,18.85
2022-09-04T03:40:28.653Z,18.87
2022-09-04T03:42:43.868Z,18.88
2022-09-04T03:45:02.943Z,18.88
2022-09-04T03:47:19.652Z,18.89
2022-09-04T03:49:37.578Z,18.91
2022-09-04T03:51:54.751Z,18.96
2022-09-04T03:54:08.398Z,19.02
2022-09-04T03:56:45.013Z,19.07
2022-09-04T03:59:01.532Z,19.08
2022-09-04T04:01:16.581Z,19.06
2022-09-04T04:03:40.546Z,19.07
2022-09-04T04:06:01.416Z,19.09
2022-09-04T04:08:34.171Z,19.09
2022-09-04T04:10:52.460Z,19.10
2022-09-04T04:13:21.248Z,19.12
2022-09-04T04:15:41.914Z,19.14
2022-09-04T04:18:03.728Z,19.17
2022-09-04T04:20:25.546Z,19.20
2022-09-04T04:22:43.836Z,19.23
2022-09-04T04:25:15.316Z,19.25
2022-09-04T04:27:32.263Z,19.26
2022-09-04T04:29:55.823Z,19.23
2022-09-04T04:32:18.899Z,19.23
2022-09-04T04:34:31.353Z,19.25
2022-09-04T04:36:42.738Z,19.26
2022-09-04T04:39:02.132Z,19.22
2022-09-04T04:41:23.241Z,19.20
2022-09-04T04:43:38.014Z,19.19
2022-09-04T04:45:52.135Z,19.13
2022-09-04T04:48:15.791Z,19.04
2022-09-04T04:50:28.187Z,18.91
2022-09-04T04:52:46.897Z,18.78
2022-09-04T04:55:05.736Z,18.65
2022-09-04T04:57:21.215Z,18.54
2022-09-04T04:59:34.647Z,18.41
2022-09-04T05:01:49.618Z,18.32
2022-09-04T05:04:11.073Z,18.26
2022-09-04T05:06:26.156Z,18.17
2022-09-04T05:08:40.517Z,18.11
2022-09-04T05:10:48.549Z,18.05
2022-09-04T05:13:02.372Z,18.03
2022-09-04T05:15:15.396Z,18.02
2022-09-04T05:17:31.486Z,18.01
2022-09-04T05:19:45.329Z,17.99
2022-09-04T05:21:56.137Z,18.02
2022-09-04T05:24:08.811Z,18.02
2022-09-04T05:26:22.726Z,18.02
2022-09-04T05:28:35.734Z,18.02
2022-09-04T05:30:49.226Z,18.03
2022-09-04T05:33:01.374Z,18.04
2022-09-04T05:35:15.745Z,18.06
2022-09-04T05:37:27.826Z,18.09
2022-09-04T05:39:37.689Z,18.12
2022-09-04T05:42:01.148Z,18.16
2022-09-04T05:44:26.961Z,18.22
2022-09-04T05:46:45.242Z,18.28
2022-09-04T05:49:00.649Z,18.35
2022-09-04T05:51:41.202Z,18.45
2022-09-04T05:54:21.331Z,18.53
2022-09-04T05:56:55.551Z,18.61
2022-09-04T05:59:30.415Z,18.70
2022-09-04T06:02:06.491Z,18.79
2022-09-04T06:04:33.012Z,18.84
2022-09-04T06:06:45.446Z,18.91
2022-09-04T06:09:15.650Z,18.96
2022-09-04T06:11:55.766Z,19.00
2022-09-04T06:14:12.095Z,19.06
2022-09-04T06:16:47.549Z,19.11
2022-09-04T06:19:07.113Z,19.16
2022-09-04T06:21:44.634Z,19.21
2022-09-04T06:24:30.558Z,19.23
2022-09-04T06:26:57.918Z,19.25
2022-09-04T06:29:29.108Z,19.30
2022-09-04T06:32:19.914Z,19.32
2022-09-04T06:34:40.660Z,19.38
2022-09-04T06:37:00.179Z,19.44
2022-09-04T06:39:23.839Z,19.52
2022-09-04T06:41:43.605Z,19.60
2022-09-04T06:44:01.276Z,19.63
2022-09-04T06:46:22.212Z,19.63
2022-09-04T06:48:42.795Z,19.65
2022-09-04T06:50:59.278Z,19.68
2022-09-04T06:53:26.751Z,19.75
2022-09-04T06:55:39.464Z,19.84
2022-09-04T06:58:02.439Z,19.92
2022-09-04T07:00:10.536Z,19.99
2022-09-04T07:02:32.455Z,20.03
2022-09-04T07:04:55.511Z,20.07
2022-09-04T07:07:10.334Z,20.15
2022-09-04T07:09:21.821Z,20.24
2022-09-04T07:11:40.688Z,20.28
2022-09-04T07:14:06.371Z,20.30
2022-09-04T07:16:34.716Z,20.34
2022-09-04T07:19:06.646Z,20.42
2022-09-04T07:21:17.974Z,20.50
2022-09-04T07:23:33.633Z,20.47
2022-09-04T07:25:47.924Z,20.46
2022-09-04T07:28:07.645Z,20.48
2022-09-04T07:30:14.949Z,20.56
2022-09-04T07:32:24.995Z,20.67
2022-09-04T07:34:37.855Z,20.75
2022-09-04T07:36:52.110Z,20.83
2022-09-04T07:39:02.770Z,20.89
2022-09-04T07:41:13.122Z,20.95
2022-09-04T07:43:31.150Z,20.91
2022-09-04T07:45:40.335Z,20.91
2022-09-04T07:47:53.436Z,20.89
2022-09-04T07:50:07.689Z,20.84
2022-09-04T07:52:24.722Z,20.77
2022-09-04T07:55:04.069Z,20.75
2022-09-04T07:57:31.092Z,20.78
2022-09-04T07:59:53.954Z,20.80
2022-09-04T08:02:18.727Z,20.81
2022-09-04T08:04:48.523Z,20.81
2022-09-04T08:06:59.221Z,20.80
2022-09-04T08:09:26.072Z,20.87
2022-09-04T08:11:49.451Z,20.91
2022-09-04T08:14:16.864Z,20.94
2022-09-04T08:16:30.562Z,20.97
2022-09-04T08:18:52.114Z,21.06
2022-09-04T08:21:10.980Z,21.14
2022-09-04T08:23:40.558Z,21.19
2022-09-04T08:25:58.425Z,21.33
2022-09-04T08:28:26.291Z,21.43
2022-09-04T08:30:41.059Z,21.47
2022-09-04T08:33:24.912Z,21.50
2022-09-04T08:35:35.053Z,21.61
2022-09-04T08:37:58.596Z,21.69
2022-09-04T08:40:39.620Z,21.69
2022-09-04T08:43:13.226Z,21.70
2022-09-04T08:45:48.536Z,21.67
2022-09-04T08:48:23.964Z,21.71
2022-09-04T08:51:03.455Z,21.69
2022-09-04T08:53:29.627Z,21.74
2022-09-04T08:56:13.219Z,21.79
2022-09-04T08:58:47.740Z,21.93
2022-09-04T09:01:16.633Z,21.99
2022-09-04T09:03:51.336Z,22.15
2022-09-04T09:06:21.445Z,22.38
2022-09-04T09:09:09.306Z,22.55
2022-09-04T09:12:04.661Z,22.68
2022-09-04T09:14:41.473Z,22.72
2022-09-04T09:16:57.326Z,22.73
2022-09-04T09:19:26.157Z,22.73
2022-09-04T09:21:44.250Z,22.72
2022-09-04T09:24:15.241Z,22.64
2022-09-04T09:26:44.029Z,22.63
2022-09-04T09:29:34.481Z,22.65
2022-09-04T09:32:11.495Z,22.62
2022-09-04T09:34:39.442Z,22.64
2022-09-04T09:37:23.756Z,22.70
2022-09-04T09:40:24.189Z,22.77
2022-09-04T09:43:04.268Z,22.74
2022-09-04T09:45:39.845Z,22.70
2022-09-04T09:48:22.917Z,22.71
2022-09-04T09:51:16.699Z,22.72
2022-09-04T09:54:13.321Z,22.73
2022-09-04T09:56:53.523Z,22.82
2022-09-04T09:59:32.615Z,22.87
2022-09-04T10:01:54.878Z,22.87
2022-09-04T10:04:22.653Z,22.88
2022-09-04T10:06:51.789Z,22.97
2022-09-04T10:09:30.788Z,23.00
2022-09-04T10:12:06.996Z,23.03
2022-09-04T10:14:41.164Z,23.06
2022-09-04T10:17:13.239Z,23.14
2022-09-04T10:19:46.997Z,23.18
2022-09-04T10:22:43.276Z,23.13
2022-09-04T10:25:17.905Z,23.06
2022-09-04T10:27:59.482Z,23.11
2022-09-04T10:30:10.708Z,23.16
2022-09-04T10:32:36.659Z,23.11
2022-09-04T10:35:08.966Z,23.08
2022-09-04T10:37:29.881Z,23.15
2022-09-04T10:39:48.444Z,23.19
2022-09-04T10:42:06.161Z,23.22
2022-09-04T10:44:38.408Z,23.35
2022-09-04T10:46:53.928Z,23.52
2022-09-04T10:49:29.150Z,23.71
2022-09-04T10:52:06.159Z,23.94
2022-09-04T10:54:26.910Z,23.99
2022-09-04T10:56:41.068Z,23.98
2022-09-04T10:59:18.626Z,24.08
2022-09-04T11:01:48.396Z,24.16
2022-09-04T11:04:31.659Z,24.17
2022-09-04T11:06:52.485Z,24.29
2022-09-04T11:09:28.066Z,24.40
2022-09-04T11:11:57.316Z,24.33
2022-09-04T11:14:47.415Z,24.22
2022-09-04T11:17:16.643Z,24.07
2022-09-04T11:20:01.811Z,24.02
2022-09-04T11:22:55.118Z,23.98
2022-09-04T11:25:36.756Z,23.98
2022-09-04T11:28:35.910Z,24.11
2022-09-04T11:30:54.420Z,24.26
2022-09-04T11:33:37.845Z,24.33
2022-09-04T11:36:17.256Z,24.41
2022-09-04T11:38:42.817Z,24.46
2022-09-04T11:41:15.126Z,24.55
2022-09-04T11:43:38.679Z,24.61
2022-09-04T11:46:03.935Z,24.70
2022-09-04T11:48:40.632Z,24.70
2022-09-04T11:51:05.831Z,24.73
2022-09-04T11:53:34.617Z,24.67
2022-09-04T11:56:15.274Z,24.60
2022-09-04T11:58:43.809Z,24.47
2022-09-04T12:00:59.636Z,24.38
2022-09-04T12:03:52.124Z,24.35
2022-09-04T12:06:17.248Z,24.39
2022-09-04T12:09:19.517Z,24.52
2022-09-04T12:11:55.921Z,24.66
2022-09-04T12:14:20.236Z,24.61
2022-09-04T12:17:05.993Z,24.62
2022-09-04T12:19:47.125Z,24.52
2022-09-04T12:22:22.975Z,24.43
2022-09-04T12:24:58.250Z,24.37
2022-09-04T12:27:40.121Z,24.34
2022-09-04T12:30:11.296Z,24.36
2022-09-04T12:33:00.736Z,24.32
2022-09-04T12:35:36.475Z,24.35
2022-09-04T12:38:12.149Z,24.40
2022-09-04T12:40:32.651Z,24.44
2022-09-04T12:42:45.075Z,24.41
2022-09-04T12:44:59.591Z,24.31
2022-09-04T12:47:18.016Z,24.14
2022-09-04T12:49:50.258Z,24.06
2022-09-04T12:52:06.317Z,23.91
2022-09-04T12:54:30.572Z,23.81
2022-09-04T12:56:48.999Z,23.75
2022-09-04T12:59:16.246Z,23.64
2022-09-04T13:01:37.677Z,23.58
2022-09-04T13:03:55.504Z,23.56
2022-09-04T13:06:12.245Z,23.55
2022-09-04T13:08:25.193Z,23.51
2022-09-04T13:10:43.296Z,23.51
2022-09-04T13:12:58.579Z,23.51
2022-09-04T13:15:31.405Z,23.50
2022-09-04T13:17:47.815Z,23.49
2022-09-04T13:20:00.730Z,23.54
2022-09-04T13:22:23.677Z,23.63
2022-09-04T13:24:44.697Z,23.67
2022-09-04T13:27:06.162Z,23.69
2022-09-04T13:29:26.764Z,23.73
2022-09-04T13:31:44.450Z,23.78
2022-09-04T13:33:57.294Z,23.90
2022-09-04T13:36:14.057Z,23.92
2022-09-04T13:38:51.551Z,23.94
2022-09-04T13:41:30.321Z,23.96
2022-09-04T13:44:06.540Z,24.01
2022-09-04T13:46:17.983Z,24.00
2022-09-04T13:48:37.161Z,24.01
2022-09-04T13:50:47.149Z,24.05
2022-09-04T13:52:57.357Z,24.09
2022-09-04T13:55:07.898Z,24.19
2022-09-04T13:57:20.028Z,24.28
2022-09-04T13:59:25.501Z,24.28
2022-09-04T14:01:33.740Z,24.30
2022-09-04T14:03:45.510Z,24.34
2022-09-04T14:05:50.886Z,24.34
2022-09-04T14:08:02.190Z,24.31
2022-09-04T14:10:12.606Z,24.33
2022-09-04T14:12:48.731Z,24.37
2022-09-04T14:15:25.821Z,24.42
2022-09-04T14:17:43.081Z,24.44
2022-09-04T14:20:00.522Z,24.45
2022-09-04T14:22:25.514Z,24.51
2022-09-04T14:27:11.366Z,24.72
2022-09-04T14:29:28.627Z,24.91
2022-09-04T14:30:29.389Z,24.55
2022-09-04T14:31:46.401Z,25.08
2022-09-04T14:34:00.668Z,25.13
2022-09-04T14:36:18.706Z,25.20
2022-09-04T14:38:45.762Z,25.23
2022-09-04T14:41:00.504Z,25.23
2022-09-04T14:43:15.229Z,25.28
2022-09-04T14:45:38.671Z,25.33
2022-09-04T14:47:47.707Z,25.37
2022-09-04T14:49:55.069Z,25.47
2022-09-04T14:52:11.831Z,25.56
2022-09-04T14:54:25.376Z,25.58
2022-09-04T14:56:35.057Z,25.54
2022-09-04T14:58:47.723Z,25.46
2022-09-04T15:01:00.952Z,25.37
2022-09-04T15:03:21.960Z,25.30
2022-09-04T15:05:33.631Z,25.30
2022-09-04T15:07:54.240Z,25.27
2022-09-04T15:10:14.139Z,25.20
2022-09-04T15:12:25.126Z,25.15
2022-09-04T15:14:36.769Z,25.12
2022-09-04T15:16:50.459Z,25.12
2022-09-04T15:19:01.847Z,25.12
2022-09-04T15:21:14.697Z,25.12
2022-09-04T15:23:27.709Z,25.15
2022-09-04T15:25:58.618Z,25.17
2022-09-04T15:28:10.852Z,25.17
2022-09-04T15:30:22.137Z,25.17
2022-09-04T15:32:31.162Z,25.18
2022-09-04T15:34:37.255Z,25.10
2022-09-04T15:36:43.260Z,25.09
2022-09-04T15:38:54.373Z,25.09
2022-09-04T15:41:16.783Z,25.01
2022-09-04T15:43:28.237Z,24.93
2022-09-04T15:45:42.571Z,24.84
2022-09-04T15:48:06.269Z,24.76
2022-09-04T15:50:21.291Z,24.66
2022-09-04T15:52:37.870Z,24.58
2022-09-04T15:55:20.797Z,24.46
2022-09-04T15:57:32.398Z,24.33
2022-09-04T15:59:48.799Z,24.12
2022-09-04T16:02:01.990Z,23.87
2022-09-04T16:04:13.166Z,23.68
2022-09-04T16:06:24.044Z,23.58
2022-09-04T16:08:37.537Z,23.47
2022-09-04T16:10:53.327Z,23.36
2022-09-04T16:13:03.854Z,23.19
2022-09-04T16:15:17.042Z,23.04
2022-09-04T16:17:25.335Z,22.90
2022-09-04T16:19:35.564Z,22.80
2022-09-04T16:21:47.031Z,22.72
2022-09-04T16:23:53.441Z,22.67
2022-09-04T16:25:59.284Z,22.66
2022-09-04T16:28:08.479Z,22.66
2022-09-04T16:30:28.578Z,22.63
2022-09-04T16:32:35.732Z,22.63
2022-09-04T16:34:47.236Z,22.65
2022-09-04T16:36:57.604Z,22.69
2022-09-04T16:39:10.196Z,22.71
2022-09-04T16:41:20.477Z,22.72
2022-09-04T16:43:28.414Z,22.71
2022-09-04T16:45:40.261Z,22.74
2022-09-04T16:47:53.832Z,22.77
2022-09-04T16:50:07.644Z,22.78
2022-09-04T16:52:58.874Z,22.80
2022-09-04T16:55:23.660Z,22.83
2022-09-04T16:57:36.984Z,22.84
2022-09-04T16:59:46.280Z,22.84
2022-09-04T17:01:59.315Z,22.85
2022-09-04T17:04:24.250Z,22.86
2022-09-04T17:06:33.737Z,22.86
2022-09-04T17:08:45.182Z,22.84
2022-09-04T17:10:54.219Z,22.82
2022-09-04T17:13:05.836Z,22.79
2022-09-04T17:15:21.727Z,22.76
2022-09-04T17:17:30.563Z,22.78
2022-09-04T17:19:36.590Z,22.79
2022-09-04T17:28:57.381Z,22.80
2022-09-04T17:29:04.197Z,22.80
2022-09-04T17:29:14.375Z,22.79
2022-09-04T17:29:42.890Z,22.76
2022-09-04T17:31:57.298Z,22.74
2022-09-04T17:40:41.060Z,22.76
2022-09-04T17:40:46.716Z,22.74
2022-09-04T17:40:54.772Z,22.73
2022-09-04T17:41:55.832Z,22.72
2022-09-04T17:44:22.721Z,22.67
2022-09-04T17:46:33.396Z,22.64
2022-09-04T17:48:43.213Z,22.56
2022-09-04T17:50:52.712Z,22.52
2022-09-04T17:53:01.704Z,22.48
2022-09-04T17:55:09.105Z,22.43
2022-09-04T17:57:21.077Z,22.43
2022-09-04T17:59:34.344Z,22.38
2022-09-04T18:01:45.262Z,22.32
2022-09-04T18:04:20.459Z,22.30
2022-09-04T18:06:27.179Z,22.24
2022-09-04T18:08:37.843Z,22.23
2022-09-04T18:10:55.301Z,22.23
2022-09-04T18:13:37.108Z,22.22
2022-09-04T18:15:47.338Z,22.21
2022-09-04T18:18:00.067Z,22.19
2022-09-04T18:20:16.148Z,22.16
2022-09-04T18:22:33.725Z,22.18
2022-09-04T18:24:44.568Z,22.18
2022-09-04T18:26:56.763Z,22.17
2022-09-04T18:29:30.445Z,22.18
2022-09-04T18:37:12.507Z,22.18
2022-09-04T18:37:20.592Z,22.21
2022-09-04T18:37:26.562Z,22.20
2022-09-04T18:39:30.089Z,22.16
2022-09-04T18:50:21.059Z,22.16
2022-09-04T18:50:22.476Z,22.17
2022-09-04T18:50:39.227Z,22.18
2022-09-04T18:51:04.356Z,22.18
2022-09-04T18:51:54.561Z,22.19
2022-09-04T18:54:08.268Z,22.18
2022-09-04T18:56:20.240Z,22.18
2022-09-04T18:58:47.556Z,22.18
2022-09-04T19:00:58.084Z,22.17
2022-09-04T19:03:12.241Z,22.17
2022-09-04T19:05:20.431Z,22.16
2022-09-04T19:07:30.068Z,22.16
2022-09-04T19:09:55.358Z,22.13
2022-09-04T19:12:07.086Z,22.08
2022-09-04T19:14:17.252Z,22.04
2022-09-04T19:16:29.236Z,21.99
2022-09-04T19:18:46.855Z,21.97
2022-09-04T19:21:00.002Z,21.94
2022-09-04T19:23:15.582Z,21.90
2022-09-04T19:25:25.605Z,21.90
2022-09-04T19:27:37.862Z,21.86
2022-09-04T19:29:51.993Z,21.84
2022-09-04T19:32:04.495Z,21.82
2022-09-04T19:34:18.891Z,21.78
2022-09-04T19:36:32.427Z,21.73
2022-09-04T19:45:19.985Z,21.72
2022-09-04T19:45:55.021Z,21.66
2022-09-04T19:46:04.422Z,21.64
2022-09-04T19:46:34.194Z,21.59
2022-09-04T19:50:54.031Z,21.58
2022-09-04T19:53:30.090Z,21.56
2022-09-04T19:54:06.465Z,21.52
2022-09-04T19:56:23.094Z,21.50
2022-09-04T19:58:37.801Z,21.45
2022-09-04T20:00:50.232Z,21.42
2022-09-04T20:02:59.374Z,21.39
2022-09-04T20:05:10.857Z,21.37
2022-09-04T20:07:32.703Z,21.35
2022-09-04T20:09:50.339Z,21.33
2022-09-04T20:11:59.238Z,21.30
2022-09-04T20:14:14.017Z,21.28
2022-09-04T20:16:25.045Z,21.26
2022-09-04T20:18:39.412Z,21.25
2022-09-04T20:20:53.413Z,21.26
2022-09-04T20:23:35.269Z,21.25
2022-09-04T20:25:39.843Z,21.22
2022-09-04T20:27:48.343Z,21.21
2022-09-04T20:29:57.681Z,21.21
2022-09-04T20:32:08.864Z,21.20
2022-09-04T20:34:36.798Z,21.20
2022-09-04T20:36:48.860Z,21.20
2022-09-04T20:38:59.383Z,21.18
2022-09-04T20:41:12.733Z,21.16
2022-09-04T20:43:27.220Z,21.15
2022-09-04T20:47:30.696Z,21.14
2022-09-04T20:52:45.189Z,21.10
2022-09-04T20:53:07.180Z,21.08
2022-09-04T20:53:26.245Z,21.06
2022-09-04T20:55:46.420Z,21.04
2022-09-04T21:03:06.293Z,20.97
2022-09-04T21:03:19.262Z,20.88
2022-09-04T21:03:29.406Z,20.80
2022-09-04T21:06:04.313Z,20.78
2022-09-04T21:08:25.956Z,20.74
2022-09-04T21:10:35.802Z,20.71
2022-09-04T21:12:46.360Z,20.67
2022-09-04T21:14:56.014Z,20.65
2022-09-04T21:17:34.175Z,20.66
2022-09-04T21:20:08.451Z,20.66
2022-09-04T21:22:33.891Z,20.64
2022-09-04T21:25:07.048Z,20.62
2022-09-04T21:28:09.268Z,20.58
2022-09-04T21:30:16.831Z,20.54
2022-09-04T21:32:40.414Z,20.52
2022-09-04T21:35:02.396Z,20.47
2022-09-04T21:37:15.940Z,20.40
2022-09-04T21:39:41.002Z,20.38
2022-09-04T21:42:01.651Z,20.37
2022-09-04T21:44:50.473Z,20.36
2022-09-04T21:47:09.776Z,20.35
2022-09-04T21:49:35.445Z,20.35
2022-09-04T21:52:00.431Z,20.32
2022-09-04T21:54:38.416Z,20.29
2022-09-04T22:02:30.448Z,20.25
2022-09-04T22:02:45.496Z,20.25
2022-09-04T22:02:52.681Z,20.24
2022-09-04T22:05:11.115Z,20.20
2022-09-04T22:11:56.890Z,20.15
2022-09-04T22:13:33.498Z,20.11
2022-09-04T22:13:44.165Z,20.12
2022-09-04T22:15:08.707Z,20.11
2022-09-04T22:17:40.490Z,20.11
2022-09-04T22:20:21.022Z,20.09
2022-09-04T22:23:02.114Z,20.07
2022-09-04T22:25:26.963Z,20.06
2022-09-04T22:28:08.878Z,20.05
2022-09-04T22:30:16.150Z,20.01
2022-09-04T22:32:50.690Z,19.96
2022-09-04T22:35:36.539Z,19.90
2022-09-04T22:38:07.886Z,19.88
2022-09-04T22:40:27.324Z,19.90
2022-09-04T22:42:57.960Z,19.90
2022-09-04T22:45:36.328Z,19.91
2022-09-04T22:47:56.371Z,19.93
2022-09-04T22:50:49.967Z,19.93
2022-09-04T22:53:12.123Z,19.92
2022-09-04T22:55:40.182Z,19.91
2022-09-04T22:58:17.605Z,19.89
2022-09-04T23:00:24.424Z,19.90
2022-09-04T23:03:07.868Z,19.87
2022-09-04T23:05:36.453Z,19.87
2022-09-04T23:13:46.678Z,19.88
2022-09-04T23:13:47.523Z,19.89
2022-09-04T23:14:05.356Z,19.88
2022-09-04T23:16:27.764Z,19.87
2022-09-04T23:21:34.062Z,19.85
2022-09-04T23:26:50.718Z,19.78
2022-09-04T23:26:53.818Z,19.81
2022-09-04T23:27:28.590Z,19.74
2022-09-04T23:30:04.036Z,19.67
2022-09-04T23:32:27.342Z,19.58
2022-09-04T23:35:14.754Z,19.51
2022-09-04T23:38:00.025Z,19.47
2022-09-04T23:40:19.263Z,19.48
2022-09-04T23:42:45.488Z,19.46
2022-09-04T23:45:17.495Z,19.46
2022-09-04T23:47:55.201Z,19.46
2022-09-04T23:50:05.013Z,19.48
2022-09-04T23:52:25.206Z,19.51
2022-09-04T23:55:03.084Z,19.56
2022-09-04T23:57:25.843Z,19.59
2022-09-04T23:59:38.931Z,19.59
